Time;durP1;ratioP1;P1;durP2;ratioP2;P2;SDS_P1;SDS_P2;PMS_P1;PMS_P2;Temp;Humidity;BMP_temperature;BMP_pressure;BME280_temperature;BME280_humidity;BME280_pressure;Samples;Min_cycle;Max_cycle;Signal;HPM_P1;HPM_P2
2020/12/24 00:01:03;;;;;;;4.40;1.10;;;8.90;99.90;;;;;;5111097;28;20093;-61
2020/12/24 00:03:29;;;;;;;8.15;1.42;;;8.90;99.90;;;;;;5104615;28;20042;-61
2020/12/24 00:05:54;;;;;;;8.80;1.60;;;8.90;99.90;;;;;;5109839;28;20024;-60
2020/12/24 00:08:21;;;;;;;5.55;1.65;;;8.90;99.90;;;;;;5111788;28;20023;-61
2020/12/24 00:10:50;;;;;;;3.50;1.10;;;8.90;99.90;;;;;;5114175;27;20019;-61
2020/12/24 00:13:16;;;;;;;4.15;1.15;;;8.80;99.90;;;;;;5115865;27;20087;-61
2020/12/24 00:15:43;;;;;;;6.47;2.05;;;8.80;99.90;;;;;;5122032;27;20098;-62
2020/12/24 00:18:09;;;;;;;7.80;1.33;;;8.80;99.90;;;;;;5117032;27;20037;-61
2020/12/24 00:20:34;;;;;;;4.10;1.38;;;8.80;99.90;;;;;;5116463;27;20469;-60
2020/12/24 00:23:00;;;;;;;6.65;1.42;;;8.80;99.90;;;;;;5114819;27;20028;-61
2020/12/24 00:25:25;;;;;;;9.82;1.85;;;8.80;99.90;;;;;;5118156;27;20052;-61
2020/12/24 00:27:51;;;;;;;9.70;1.63;;;8.70;99.90;;;;;;5122491;27;20027;-61
2020/12/24 00:30:16;;;;;;;11.10;1.67;;;8.70;99.90;;;;;;5118083;27;20042;-60
2020/12/24 00:32:42;;;;;;;7.75;1.58;;;8.70;99.90;;;;;;5117039;27;20407;-61
2020/12/24 00:35:07;;;;;;;7.18;1.17;;;8.60;99.90;;;;;;5120174;27;20024;-60
2020/12/24 00:37:33;;;;;;;7.85;1.50;;;8.60;99.90;;;;;;5126978;27;20030;-60
2020/12/24 00:39:59;;;;;;;6.95;1.02;;;8.70;99.90;;;;;;5126817;27;20027;-61
2020/12/24 00:42:24;;;;;;;12.02;1.48;;;8.70;99.90;;;;;;5116708;27;20042;-63
2020/12/24 00:44:50;;;;;;;10.60;2.17;;;8.70;99.90;;;;;;5112626;27;20377;-62
2020/12/24 00:47:15;;;;;;;7.82;1.38;;;8.70;99.90;;;;;;5118409;27;20528;-60
2020/12/24 00:49:41;;;;;;;5.38;1.20;;;8.70;99.90;;;;;;5120334;27;20012;-61
2020/12/24 00:52:06;;;;;;;5.75;1.38;;;8.70;99.90;;;;;;5123115;27;20035;-63
2020/12/24 00:54:32;;;;;;;9.70;1.83;;;8.70;99.90;;;;;;5124455;27;20076;-62
2020/12/24 00:56:58;;;;;;;11.35;1.58;;;8.70;99.90;;;;;;5119010;27;20038;-61
2020/12/24 00:59:23;;;;;;;10.32;1.63;;;8.60;99.90;;;;;;5122734;27;20031;-61
2020/12/24 01:01:49;;;;;;;13.25;1.75;;;8.70;99.90;;;;;;5119680;27;20042;-62
2020/12/24 01:04:15;;;;;;;6.25;1.38;;;8.70;99.90;;;;;;5122266;27;20071;-61
2020/12/24 01:06:40;;;;;;;5.80;1.48;;;8.70;99.90;;;;;;5118115;27;20434;-62
2020/12/24 01:09:06;;;;;;;6.47;1.55;;;8.70;99.90;;;;;;5118930;27;20110;-60
2020/12/24 01:11:32;;;;;;;10.13;1.63;;;8.70;99.90;;;;;;5123623;27;20449;-61
2020/12/24 01:13:57;;;;;;;9.38;1.40;;;8.70;99.90;;;;;;5125180;27;20019;-61
2020/12/24 01:16:23;;;;;;;8.40;1.48;;;8.70;99.90;;;;;;5121279;27;20034;-61
2020/12/24 01:18:49;;;;;;;10.40;2.17;;;8.60;99.90;;;;;;5114556;27;20027;-61
2020/12/24 01:21:14;;;;;;;9.75;1.77;;;8.60;99.90;;;;;;5122905;27;20625;-61
2020/12/24 01:23:40;;;;;;;12.63;2.22;;;8.60;99.90;;;;;;5118832;27;20039;-61
2020/12/24 01:26:07;;;;;;;6.57;2.03;;;8.60;99.90;;;;;;5121864;27;20438;-61
2020/12/24 01:28:33;;;;;;;13.27;2.97;;;8.60;99.90;;;;;;5125064;27;20019;-60
2020/12/24 01:30:58;;;;;;;6.70;1.48;;;8.60;99.90;;;;;;5125583;27;20030;-60
2020/12/24 01:33:28;;;;;;;10.02;2.70;;;8.60;99.90;;;;;;5124548;27;20035;-60
2020/12/24 01:35:54;;;;;;;10.10;2.08;;;8.70;99.90;;;;;;5134357;27;20024;-61
2020/12/24 01:38:20;;;;;;;8.35;1.70;;;8.80;99.90;;;;;;5148315;27;20038;-60
2020/12/24 01:40:47;;;;;;;16.77;2.08;;;8.80;99.90;;;;;;5142829;27;20067;-60
2020/12/24 01:43:13;;;;;;;5.50;1.73;;;8.80;99.90;;;;;;5120012;27;20032;-60
2020/12/24 01:45:39;;;;;;;16.88;2.28;;;8.80;99.90;;;;;;5114911;27;20043;-61
2020/12/24 01:48:04;;;;;;;11.52;2.28;;;8.80;99.90;;;;;;5107517;28;20514;-60
2020/12/24 01:50:30;;;;;;;11.23;1.55;;;8.80;99.90;;;;;;5099461;28;20020;-60
2020/12/24 01:52:59;;;;;;;11.35;2.90;;;8.80;99.90;;;;;;5105850;28;20027;-60
2020/12/24 01:55:24;;;;;;;11.27;2.42;;;8.70;99.90;;;;;;5099621;28;20427;-60
2020/12/24 01:57:54;;;;;;;14.82;2.30;;;8.80;99.90;;;;;;5096947;28;20156;-61
2020/12/24 02:00:19;;;;;;;10.25;1.70;;;8.80;99.90;;;;;;5114520;28;20552;-60
2020/12/24 02:02:45;;;;;;;12.15;2.65;;;8.70;99.90;;;;;;5117971;28;20121;-60
2020/12/24 02:05:10;;;;;;;10.57;2.78;;;8.70;99.90;;;;;;5122716;28;20138;-61
2020/12/24 02:07:36;;;;;;;10.77;1.88;;;8.70;99.90;;;;;;5119460;28;20023;-61
2020/12/24 02:10:02;;;;;;;13.88;2.40;;;8.70;99.90;;;;;;5120649;28;20103;-60
2020/12/24 02:12:28;;;;;;;14.13;2.53;;;8.70;99.90;;;;;;5117418;28;20038;-60
2020/12/24 02:14:53;;;;;;;10.80;2.05;;;8.70;99.90;;;;;;5113100;28;20032;-60
2020/12/24 02:17:19;;;;;;;9.25;2.83;;;8.80;99.90;;;;;;5107080;28;20111;-60
2020/12/24 02:19:44;;;;;;;12.23;2.90;;;8.70;99.90;;;;;;5107101;28;20123;-65
2020/12/24 02:22:11;;;;;;;16.80;2.60;;;8.70;99.90;;;;;;5103590;28;20106;-61
2020/12/24 02:24:40;;;;;;;14.10;2.90;;;8.70;99.90;;;;;;5107188;28;20115;-62
2020/12/24 02:27:06;;;;;;;13.65;2.53;;;8.70;99.90;;;;;;5104775;28;20035;-60
2020/12/24 02:29:31;;;;;;;15.23;2.28;;;8.60;99.90;;;;;;5099867;28;20031;-61
2020/12/24 02:31:57;;;;;;;7.57;2.05;;;8.60;99.90;;;;;;5108950;28;20058;-62
2020/12/24 02:34:23;;;;;;;10.55;1.90;;;8.70;99.90;;;;;;5119588;28;20024;-61
2020/12/24 02:36:48;;;;;;;17.48;2.30;;;8.70;99.90;;;;;;5120015;28;20028;-61
2020/12/24 02:39:14;;;;;;;16.75;3.13;;;8.70;99.90;;;;;;5125437;28;20080;-60
2020/12/24 02:41:40;;;;;;;13.98;2.13;;;8.70;99.90;;;;;;5122739;28;20032;-60
2020/12/24 02:44:06;;;;;;;10.60;2.35;;;8.70;99.90;;;;;;5120715;27;20027;-60
2020/12/24 02:46:32;;;;;;;14.50;2.33;;;8.60;99.90;;;;;;5117577;27;20024;-61
2020/12/24 02:48:57;;;;;;;20.50;2.92;;;8.70;99.90;;;;;;5125668;27;20439;-60
2020/12/24 02:51:23;;;;;;;11.05;2.08;;;8.60;99.90;;;;;;5112947;27;20016;-60
2020/12/24 02:53:49;;;;;;;14.20;2.60;;;8.60;99.90;;;;;;5107157;28;20024;-59
2020/12/24 02:56:14;;;;;;;16.58;2.40;;;8.60;99.90;;;;;;5109161;28;20440;-61
2020/12/24 02:58:40;;;;;;;19.00;2.83;;;8.50;99.90;;;;;;5111422;28;20073;-61
2020/12/24 03:01:05;;;;;;;13.35;2.67;;;8.60;99.90;;;;;;5108108;28;20028;-62
2020/12/24 03:03:31;;;;;;;13.95;2.60;;;8.60;99.90;;;;;;5108271;28;20694;-60
2020/12/24 03:05:56;;;;;;;21.92;3.22;;;8.60;99.90;;;;;;5110894;28;20042;-61
2020/12/24 03:08:22;;;;;;;13.93;2.95;;;8.60;99.90;;;;;;5100041;27;20055;-60
2020/12/24 03:10:47;;;;;;;15.75;2.88;;;8.50;99.90;;;;;;5117895;27;20024;-60
2020/12/24 03:13:13;;;;;;;11.35;2.25;;;8.50;99.90;;;;;;5106209;28;20055;-61
2020/12/24 03:15:39;;;;;;;26.38;2.72;;;8.50;99.90;;;;;;5111460;27;20030;-63
2020/12/24 03:18:04;;;;;;;21.10;3.38;;;8.50;99.90;;;;;;5112334;28;20020;-62
2020/12/24 03:20:30;;;;;;;17.80;3.58;;;8.50;99.90;;;;;;5108086;28;20161;-60
2020/12/24 03:22:55;;;;;;;17.25;3.15;;;8.50;99.90;;;;;;5107177;28;20370;-61
2020/12/24 03:25:21;;;;;;;12.13;2.97;;;8.50;99.90;;;;;;5113565;27;20037;-61
2020/12/24 03:27:46;;;;;;;9.68;1.85;;;8.50;99.90;;;;;;5107293;28;20396;-61
2020/12/24 03:30:12;;;;;;;13.75;2.67;;;8.50;99.90;;;;;;5110836;28;20107;-60
2020/12/24 03:32:38;;;;;;;13.65;2.80;;;8.60;99.90;;;;;;5110399;28;20035;-62
2020/12/24 03:35:04;;;;;;;14.77;2.97;;;8.60;99.90;;;;;;5107252;28;20445;-61
2020/12/24 03:37:30;;;;;;;13.05;3.38;;;8.60;99.90;;;;;;5111982;28;20030;-61
2020/12/24 03:39:56;;;;;;;12.80;3.05;;;8.60;99.90;;;;;;5109186;28;20111;-61
2020/12/24 03:42:21;;;;;;;17.50;3.08;;;8.50;99.90;;;;;;5109637;28;20059;-60
2020/12/24 03:44:47;;;;;;;12.98;3.05;;;8.50;99.90;;;;;;5111375;28;20035;-61
2020/12/24 03:47:12;;;;;;;11.45;2.72;;;8.60;99.90;;;;;;5110366;28;20043;-61
2020/12/24 03:49:38;;;;;;;16.52;2.88;;;8.60;99.90;;;;;;5112592;27;20392;-61
2020/12/24 03:52:03;;;;;;;15.55;2.78;;;8.60;99.90;;;;;;5120011;27;20016;-61
2020/12/24 03:54:29;;;;;;;11.38;2.55;;;8.50;99.90;;;;;;5109207;28;20034;-62
2020/12/24 03:56:54;;;;;;;13.95;2.85;;;8.60;99.90;;;;;;5114000;27;20047;-60
2020/12/24 03:59:20;;;;;;;13.85;2.85;;;8.50;99.90;;;;;;5114768;27;20700;-60
2020/12/24 04:01:45;;;;;;;15.05;2.00;;;8.50;99.90;;;;;;5109456;28;20031;-61
2020/12/24 04:04:11;;;;;;;7.97;2.10;;;8.50;99.90;;;;;;5106484;28;20103;-60
2020/12/24 04:06:36;;;;;;;17.60;3.67;;;8.50;99.90;;;;;;5102886;28;20028;-62
2020/12/24 04:09:03;;;;;;;9.80;1.83;;;8.60;99.90;;;;;;5109864;28;20063;-61
2020/12/24 04:11:28;;;;;;;14.98;1.98;;;8.50;99.90;;;;;;5107450;28;20099;-61
2020/12/24 04:13:54;;;;;;;9.27;1.58;;;8.60;99.90;;;;;;5109439;28;20497;-61
2020/12/24 04:16:20;;;;;;;14.75;2.53;;;8.50;99.90;;;;;;5109849;28;20040;-61
2020/12/24 04:18:46;;;;;;;9.07;2.78;;;8.60;99.90;;;;;;5105909;28;20110;-60
2020/12/24 04:21:12;;;;;;;9.20;1.75;;;8.60;99.90;;;;;;5110423;27;20106;-60
2020/12/24 04:23:37;;;;;;;11.00;1.90;;;8.50;99.90;;;;;;5106107;28;20020;-60
2020/12/24 04:26:03;;;;;;;10.60;1.77;;;8.50;99.90;;;;;;5109907;28;20404;-60
2020/12/24 04:28:28;;;;;;;21.63;2.75;;;8.50;99.90;;;;;;5105377;28;20028;-60
2020/12/24 04:30:54;;;;;;;12.20;2.35;;;8.50;99.90;;;;;;5117532;27;20019;-60
2020/12/24 04:33:19;;;;;;;6.60;1.90;;;8.50;99.90;;;;;;5106180;28;20104;-61
2020/12/24 04:35:45;;;;;;;14.32;2.15;;;8.50;99.90;;;;;;5110709;27;20107;-60
2020/12/24 04:38:10;;;;;;;9.98;2.05;;;8.30;99.90;;;;;;5109522;28;20022;-61
2020/12/24 04:40:36;;;;;;;2.20;1.90;;;8.30;99.90;;;;;;5114626;27;20103;-60
2020/12/24 04:43:04;;;;;;;3.30;1.45;;;7.60;99.90;;;;;;5102187;27;20046;-60
2020/12/24 04:45:32;;;;;;;4.65;1.58;;;6.60;99.90;;;;;;5110886;27;20040;-60
2020/12/24 04:47:58;;;;;;;2.13;1.40;;;6.10;99.90;;;;;;5110131;27;20403;-60
2020/12/24 04:50:28;;;;;;;4.70;1.42;;;5.80;99.90;;;;;;5108911;28;20027;-60
2020/12/24 04:52:55;;;;;;;1.90;1.30;;;5.70;99.90;;;;;;5107354;28;20030;-61
2020/12/24 04:55:21;;;;;;;3.33;1.30;;;5.50;99.90;;;;;;5108638;28;20139;-60
2020/12/24 04:57:50;;;;;;;5.13;2.00;;;5.60;99.90;;;;;;5105927;28;20027;-58
2020/12/24 05:00:16;;;;;;;5.30;1.60;;;5.50;99.90;;;;;;5104837;28;20035;-61
2020/12/24 05:02:42;;;;;;;2.47;1.27;;;5.40;99.90;;;;;;5097708;28;20031;-61
2020/12/24 05:05:08;;;;;;;3.70;1.40;;;5.40;99.90;;;;;;5109068;28;20111;-62
2020/12/24 05:07:33;;;;;;;3.15;1.55;;;5.30;99.90;;;;;;5109880;28;20035;-59
2020/12/24 05:09:59;;;;;;;3.50;2.38;;;5.30;99.90;;;;;;5129836;28;20026;-59
2020/12/24 05:12:32;;;;;;;2.75;2.22;;;5.30;99.90;;;;;;5132246;28;20065;-58
2020/12/24 05:14:58;;;;;;;1.92;1.40;;;5.30;99.90;;;;;;5122966;28;20038;-60
2020/12/24 05:17:25;;;;;;;3.95;1.42;;;5.20;99.90;;;;;;5124815;27;20549;-58
2020/12/24 05:20:19;;;;;;;4.22;1.77;;;5.20;99.90;;;;;;5127593;27;20053;-60
2020/12/24 05:22:45;;;;;;;2.90;1.63;;;5.20;99.90;;;;;;5092705;27;20039;-61
2020/12/24 05:25:18;;;;;;;4.10;1.50;;;5.20;99.90;;;;;;5114706;27;20496;-60
2020/12/24 05:27:45;;;;;;;0.88;0.85;;;5.20;99.90;;;;;;5112750;27;20030;-60
2020/12/24 05:30:10;;;;;;;1.58;0.55;;;5.10;99.90;;;;;;5108609;27;20015;-59
2020/12/24 05:32:39;;;;;;;1.25;0.45;;;5.10;99.90;;;;;;5105924;28;20475;-61
2020/12/24 05:35:09;;;;;;;0.52;0.50;;;5.00;99.90;;;;;;5106642;27;20101;-60
2020/12/24 05:37:35;;;;;;;0.85;0.68;;;5.10;99.90;;;;;;5117224;28;20028;-60
2020/12/24 05:40:19;;;;;;;0.57;0.57;;;5.00;99.90;;;;;;5119575;28;20053;-60
2020/12/24 05:42:49;;;;;;;0.82;0.68;;;5.00;99.90;;;;;;5106456;28;20039;-61
2020/12/24 05:45:16;;;;;;;0.40;0.35;;;5.00;99.90;;;;;;5121117;27;20055;-59
2020/12/24 05:47:42;;;;;;;1.38;0.28;;;4.90;99.90;;;;;;5120037;27;20034;-60
2020/12/24 05:50:21;;;;;;;1.25;0.60;;;4.80;99.90;;;;;;5121049;28;20059;-60
2020/12/24 05:53:09;;;;;;;1.33;0.35;;;4.70;99.90;;;;;;5110838;28;20397;-60
2020/12/24 05:55:36;;;;;;;1.88;0.32;;;4.70;99.90;;;;;;5113558;28;20026;-60
2020/12/24 05:58:02;;;;;;;0.20;0.20;;;4.70;99.90;;;;;;5115686;28;20031;-61
2020/12/24 06:00:55;;;;;;;2.22;0.40;;;4.60;99.90;;;;;;5114700;28;20046;-60
2020/12/24 06:03:34;;;;;;;0.45;0.30;;;4.60;99.90;;;;;;5102360;28;20500;-60
2020/12/24 06:06:06;;;;;;;0.30;0.30;;;4.60;99.90;;;;;;5117862;28;20739;-60
2020/12/24 06:08:33;;;;;;;0.30;0.30;;;4.60;99.90;;;;;;5109467;28;20100;-60
2020/12/24 06:11:05;;;;;;;1.98;0.50;;;4.60;99.90;;;;;;5104743;28;20027;-59
2020/12/24 06:13:37;;;;;;;0.57;0.47;;;4.50;99.90;;;;;;5122978;27;20031;-60
2020/12/24 06:16:05;;;;;;;0.77;0.40;;;4.50;99.90;;;;;;5118039;28;20503;-59
2020/12/24 06:18:33;;;;;;;0.77;0.70;;;4.60;99.90;;;;;;5121449;27;20050;-62
2020/12/24 06:21:02;;;;;;;1.60;0.35;;;4.60;99.90;;;;;;5123614;27;20027;-61
2020/12/24 06:23:32;;;;;;;2.10;0.40;;;4.60;99.90;;;;;;5125208;27;20441;-60
2020/12/24 06:26:04;;;;;;;0.40;0.40;;;4.60;99.90;;;;;;5124051;27;20043;-60
2020/12/24 06:28:33;;;;;;;1.63;0.43;;;4.50;99.90;;;;;;5118632;27;20023;-60
2020/12/24 06:31:00;;;;;;;0.20;0.20;;;4.50;99.90;;;;;;5118006;27;20716;-59
2020/12/24 06:33:27;;;;;;;0.20;0.20;;;4.50;99.90;;;;;;5121552;27;20054;-60
2020/12/24 06:35:53;;;;;;;2.60;0.70;;;4.50;99.90;;;;;;5122753;27;20093;-60
2020/12/24 06:38:42;;;;;;;2.05;1.10;;;4.60;99.90;;;;;;5123040;27;21513;-61
2020/12/24 06:41:22;;;;;;;0.40;0.40;;;4.50;99.90;;;;;;5119161;27;20168;-60
2020/12/24 06:43:49;;;;;;;1.17;0.65;;;4.60;99.90;;;;;;5109470;28;20028;-61
2020/12/24 06:46:14;;;;;;;2.72;0.65;;;4.60;99.90;;;;;;5113835;27;20038;-60
2020/12/24 06:48:40;;;;;;;2.97;0.73;;;4.60;99.90;;;;;;5111807;27;20389;-60
2020/12/24 06:51:06;;;;;;;0.80;0.57;;;4.60;99.90;;;;;;5113474;27;20024;-59
2020/12/24 06:53:34;;;;;;;1.23;0.50;;;4.70;99.90;;;;;;5113479;27;20505;-60
2020/12/24 06:56:16;;;;;;;1.13;0.50;;;4.70;99.90;;;;;;5110301;28;20560;-60
2020/12/24 06:58:58;;;;;;;0.43;0.43;;;4.80;99.90;;;;;;5110460;28;20451;-58
2020/12/24 07:01:31;;;;;;;1.08;0.40;;;4.80;99.90;;;;;;5109516;28;20119;-59
2020/12/24 07:04:03;;;;;;;2.22;0.63;;;4.80;99.90;;;;;;5106736;27;20016;-60
2020/12/24 07:06:45;;;;;;;0.55;0.55;;;4.80;99.90;;;;;;5111872;27;20095;-59
2020/12/24 07:09:12;;;;;;;0.57;0.55;;;4.80;99.90;;;;;;5110403;27;20102;-59
2020/12/24 07:11:42;;;;;;;0.85;0.70;;;4.80;99.90;;;;;;5111355;28;20296;-59
2020/12/24 07:14:27;;;;;;;1.15;0.80;;;4.80;99.90;;;;;;5110501;28;20016;-60
2020/12/24 07:16:54;;;;;;;3.67;0.95;;;4.90;99.90;;;;;;5101858;28;20233;-58
2020/12/24 07:19:21;;;;;;;1.48;0.98;;;4.90;99.90;;;;;;5121329;27;20095;-59
2020/12/24 07:21:51;;;;;;;1.55;0.90;;;4.90;99.90;;;;;;5119046;27;20353;-59
2020/12/24 07:24:28;;;;;;;1.45;0.95;;;4.90;99.90;;;;;;5113957;27;20042;-59
2020/12/24 07:26:58;;;;;;;2.47;0.80;;;4.80;99.90;;;;;;5115338;27;20023;-61
2020/12/24 07:29:25;;;;;;;0.75;0.60;;;4.90;99.90;;;;;;5110492;28;20024;-60
2020/12/24 07:31:52;;;;;;;0.60;0.60;;;4.90;99.90;;;;;;5110852;28;20318;-61
2020/12/24 07:34:29;;;;;;;1.48;0.68;;;4.90;99.90;;;;;;5111385;28;20377;-61
2020/12/24 07:36:54;;;;;;;1.15;0.85;;;4.90;99.90;;;;;;5109100;28;21293;-60
2020/12/24 07:39:21;;;;;;;1.70;1.08;;;4.90;99.90;;;;;;5111511;28;20394;-62
2020/12/24 07:41:47;;;;;;;0.90;0.90;;;5.00;99.90;;;;;;5118121;27;20045;-60
2020/12/24 07:44:16;;;;;;;2.55;1.30;;;5.00;99.90;;;;;;5111330;28;20439;-59
2020/12/24 07:46:42;;;;;;;2.10;1.67;;;5.00;99.90;;;;;;5110330;28;20026;-60
2020/12/24 07:49:08;;;;;;;3.72;1.85;;;5.00;99.90;;;;;;5111811;27;20028;-60
2020/12/24 07:51:33;;;;;;;3.53;2.42;;;5.10;99.90;;;;;;5112425;27;20044;-61
2020/12/24 07:54:12;;;;;;;5.57;3.40;;;5.10;99.90;;;;;;5110709;27;20070;-60
2020/12/24 07:56:44;;;;;;;6.28;4.20;;;5.10;99.90;;;;;;5105366;28;20024;-60
2020/12/24 07:59:10;;;;;;;5.65;4.05;;;5.10;99.90;;;;;;5092893;28;20028;-62
2020/12/24 08:01:36;;;;;;;7.72;4.22;;;5.10;99.90;;;;;;5105316;28;20049;-60
2020/12/24 08:04:04;;;;;;;7.90;4.45;;;5.10;99.90;;;;;;5107266;28;20516;-61
2020/12/24 08:06:33;;;;;;;8.35;5.40;;;5.10;99.90;;;;;;5110803;28;20084;-60
2020/12/24 08:09:13;;;;;;;11.43;6.43;;;5.10;99.90;;;;;;5107501;28;20024;-60
2020/12/24 08:11:40;;;;;;;8.90;5.90;;;5.10;99.90;;;;;;5106996;28;20027;-60
2020/12/24 08:14:06;;;;;;;9.20;5.95;;;5.20;99.90;;;;;;5108545;28;20471;-60
2020/12/24 08:16:35;;;;;;;9.98;6.40;;;5.10;99.90;;;;;;5109876;28;20019;-60
2020/12/24 08:19:28;;;;;;;7.60;4.95;;;5.10;99.90;;;;;;5112808;27;20016;-61
2020/12/24 08:22:01;;;;;;;10.98;5.07;;;5.20;99.90;;;;;;5098583;28;20374;-61
2020/12/24 08:24:29;;;;;;;8.20;5.25;;;5.10;99.90;;;;;;5115198;27;20022;-59
2020/12/24 08:26:57;;;;;;;11.15;5.55;;;5.20;99.90;;;;;;5115461;27;20051;-60
2020/12/24 08:29:24;;;;;;;8.73;5.32;;;5.20;99.90;;;;;;5115730;27;20366;-62
2020/12/24 08:31:50;;;;;;;9.45;4.57;;;5.20;99.90;;;;;;5108934;28;20081;-61
2020/12/24 08:34:16;;;;;;;7.40;4.40;;;5.20;99.90;;;;;;5116433;27;20078;-59
2020/12/24 08:36:47;;;;;;;8.82;4.63;;;5.20;99.90;;;;;;5127801;28;20011;-58
2020/12/24 08:39:14;;;;;;;8.10;4.22;;;5.20;99.90;;;;;;5129984;28;20026;-57
2020/12/24 08:41:45;;;;;;;6.72;4.45;;;5.20;99.90;;;;;;5130802;27;20026;-59
2020/12/24 08:44:16;;;;;;;5.75;3.75;;;5.30;99.90;;;;;;5115328;27;20054;-59
2020/12/24 08:46:42;;;;;;;7.45;3.55;;;5.20;99.90;;;;;;5108673;27;20020;-60
2020/12/24 08:49:24;;;;;;;7.38;3.92;;;5.30;99.90;;;;;;5105149;28;20028;-60
2020/12/24 08:52:10;;;;;;;5.97;3.22;;;5.20;99.90;;;;;;5108657;28;20284;-59
2020/12/24 08:54:36;;;;;;;7.25;3.55;;;5.30;99.90;;;;;;5109891;28;20584;-60
2020/12/24 08:57:04;;;;;;;4.93;2.67;;;5.30;99.90;;;;;;5107144;28;20031;-60
2020/12/24 08:59:30;;;;;;;6.90;3.08;;;5.30;99.90;;;;;;5096797;28;20028;-60
2020/12/24 09:01:56;;;;;;;7.05;2.50;;;5.30;99.90;;;;;;5109271;28;20081;-60
2020/12/24 09:04:22;;;;;;;6.63;2.75;;;5.30;99.90;;;;;;5109989;28;20111;-59
2020/12/24 09:06:48;;;;;;;9.30;2.42;;;5.30;99.90;;;;;;5114762;27;20477;-60
2020/12/24 09:09:24;;;;;;;7.35;2.40;;;5.40;99.90;;;;;;5116716;27;20031;-60
2020/12/24 09:11:51;;;;;;;3.50;2.28;;;5.40;99.90;;;;;;5108929;28;20079;-61
2020/12/24 09:14:19;;;;;;;6.13;1.63;;;5.40;99.90;;;;;;5110366;28;20027;-60
2020/12/24 09:16:56;;;;;;;6.28;1.70;;;5.40;99.90;;;;;;5108876;28;20397;-60
2020/12/24 09:19:21;;;;;;;2.22;1.40;;;5.40;99.90;;;;;;5098257;28;20183;-60
2020/12/24 09:21:52;;;;;;;4.70;1.40;;;5.50;99.90;;;;;;5107646;28;20493;-60
2020/12/24 09:24:18;;;;;;;6.80;1.30;;;5.50;99.90;;;;;;5109674;27;20030;-61
2020/12/24 09:26:54;;;;;;;2.72;1.30;;;5.50;99.90;;;;;;5111011;27;20016;-61
2020/12/24 09:29:22;;;;;;;4.35;1.75;;;5.60;99.90;;;;;;5108185;27;20047;-60
2020/12/24 09:31:53;;;;;;;4.70;1.40;;;5.60;99.90;;;;;;5108619;28;20394;-61
2020/12/24 09:34:19;;;;;;;5.88;1.00;;;5.60;99.90;;;;;;5111655;27;20019;-60
2020/12/24 09:36:48;;;;;;;3.63;1.15;;;5.60;99.90;;;;;;5111009;28;20023;-61
2020/12/24 09:39:14;;;;;;;5.50;1.50;;;5.60;99.90;;;;;;5110521;27;20061;-61
2020/12/24 09:41:42;;;;;;;2.38;1.02;;;5.70;99.90;;;;;;5108913;28;20026;-62
2020/12/24 09:44:07;;;;;;;4.90;1.63;;;5.70;99.90;;;;;;5108771;28;20047;-61
2020/12/24 09:46:33;;;;;;;4.15;1.30;;;5.70;99.90;;;;;;5104506;28;20135;-63
2020/12/24 09:48:58;;;;;;;5.68;1.17;;;5.70;99.90;;;;;;5093763;28;20036;-60
2020/12/24 09:51:24;;;;;;;8.98;1.30;;;5.70;99.90;;;;;;5098902;28;20077;-59
2020/12/24 09:53:50;;;;;;;5.15;1.38;;;5.70;99.90;;;;;;5115364;28;20023;-61
2020/12/24 09:56:19;;;;;;;3.60;0.77;;;5.80;99.90;;;;;;5102818;28;20031;-61
2020/12/24 09:58:44;;;;;;;2.03;0.77;;;5.80;99.90;;;;;;5106795;28;20568;-61
2020/12/24 10:01:10;;;;;;;3.80;0.95;;;5.90;99.90;;;;;;5106731;28;20087;-60
2020/12/24 10:03:35;;;;;;;6.22;1.05;;;5.90;99.90;;;;;;5109002;28;20024;-60
2020/12/24 10:06:01;;;;;;;5.20;0.85;;;5.90;99.90;;;;;;5108651;28;20020;-62
2020/12/24 10:08:26;;;;;;;2.55;0.90;;;5.90;99.90;;;;;;5108355;28;20062;-60
2020/12/24 10:10:52;;;;;;;4.85;1.10;;;5.90;99.90;;;;;;5107460;28;20020;-63
2020/12/24 10:13:17;;;;;;;3.95;1.48;;;5.90;99.90;;;;;;5109921;28;20035;-62
2020/12/24 10:15:45;;;;;;;10.82;2.28;;;6.00;99.90;;;;;;5109005;28;20020;-64
2020/12/24 10:18:10;;;;;;;5.50;1.10;;;6.00;99.90;;;;;;5110336;28;20245;-61
2020/12/24 10:20:36;;;;;;;13.02;1.42;;;6.10;99.90;;;;;;5113485;28;20397;-62
2020/12/24 10:23:01;;;;;;;13.05;1.45;;;6.10;99.90;;;;;;5132105;28;20045;-62
2020/12/24 10:25:27;;;;;;;8.07;1.48;;;6.10;99.90;;;;;;5131902;28;20039;-60
2020/12/24 10:27:52;;;;;;;4.57;1.25;;;6.10;99.90;;;;;;5128853;28;20047;-60
2020/12/24 10:30:18;;;;;;;10.07;1.40;;;6.20;99.90;;;;;;5127986;28;20085;-60
2020/12/24 10:32:44;;;;;;;10.93;2.20;;;6.20;99.90;;;;;;5109205;28;20370;-60
2020/12/24 10:35:09;;;;;;;10.35;1.88;;;6.20;99.90;;;;;;5105919;28;20063;-61
2020/12/24 10:37:35;;;;;;;6.30;1.38;;;6.20;99.90;;;;;;5108654;28;20383;-60
2020/12/24 10:40:01;;;;;;;6.65;0.98;;;6.20;99.90;;;;;;5111199;28;20032;-61
2020/12/24 15:50:44;;;;;;;7.22;1.13;;;5.10;99.90;;;;;;5119755;27;20781;-61
2020/12/24 15:53:09;;;;;;;6.60;1.02;;;5.10;99.90;;;;;;5103635;27;20024;-60
2020/12/24 15:55:36;;;;;;;6.60;0.98;;;5.10;99.90;;;;;;5106445;27;20024;-63
2020/12/24 15:58:02;;;;;;;0.77;0.50;;;5.10;99.90;;;;;;5101211;27;20294;-62
2020/12/24 16:00:29;;;;;;;3.10;0.95;;;5.10;99.90;;;;;;5108991;28;20384;-63
2020/12/24 16:02:54;;;;;;;2.47;0.80;;;5.10;99.90;;;;;;5103735;28;20012;-61
2020/12/24 16:05:20;;;;;;;3.97;0.80;;;5.10;99.90;;;;;;5105341;27;20106;-61
2020/12/24 16:07:46;;;;;;;5.95;1.30;;;5.10;99.90;;;;;;5121661;27;20016;-61
2020/12/24 16:10:11;;;;;;;5.10;1.25;;;5.10;99.90;;;;;;5106136;27;20394;-61
2020/12/24 16:12:37;;;;;;;2.83;1.05;;;5.00;99.90;;;;;;5116573;27;20358;-62
2020/12/24 16:15:04;;;;;;;9.55;1.83;;;5.10;99.90;;;;;;5120369;27;20008;-61
2020/12/24 16:17:30;;;;;;;4.28;1.17;;;5.10;99.90;;;;;;5119347;27;20083;-61
2020/12/24 16:19:55;;;;;;;3.22;1.45;;;5.10;99.90;;;;;;5127667;27;20016;-61
2020/12/24 16:22:21;;;;;;;5.53;1.40;;;5.10;99.90;;;;;;5107835;28;20023;-61
2020/12/24 16:24:46;;;;;;;6.07;1.27;;;5.10;99.90;;;;;;5106380;28;20020;-61
2020/12/24 16:27:12;;;;;;;7.13;1.90;;;5.10;99.90;;;;;;5102491;28;20050;-62
2020/12/24 16:29:38;;;;;;;7.15;1.40;;;5.20;99.90;;;;;;5105979;28;20503;-60
2020/12/24 16:32:03;;;;;;;9.57;1.42;;;5.10;99.90;;;;;;5087847;28;20028;-61
2020/12/24 16:34:30;;;;;;;7.82;2.03;;;5.20;99.90;;;;;;5103778;28;20027;-60
2020/12/24 16:36:56;;;;;;;9.30;1.40;;;5.20;99.90;;;;;;5099467;28;20020;-60
2020/12/24 16:39:22;;;;;;;8.43;1.60;;;5.30;99.90;;;;;;5100780;28;20422;-60
2020/12/24 16:41:57;;;;;;;14.77;1.98;;;5.20;99.90;;;;;;5104912;27;20403;-60
2020/12/24 16:44:22;;;;;;;15.20;2.10;;;5.20;99.90;;;;;;5105095;27;20076;-61
2020/12/24 16:46:48;;;;;;;8.32;1.85;;;5.20;99.90;;;;;;5096900;28;20020;-60
2020/12/24 16:49:13;;;;;;;11.88;1.88;;;5.20;99.90;;;;;;5098638;28;20043;-61
2020/12/24 16:51:39;;;;;;;12.55;2.17;;;5.20;99.90;;;;;;5098011;28;20024;-60
2020/12/24 16:54:04;;;;;;;8.93;1.65;;;5.20;99.90;;;;;;5101679;27;20019;-62
2020/12/24 16:56:30;;;;;;;12.20;1.75;;;5.30;99.90;;;;;;5104490;27;20035;-59
2020/12/24 16:58:56;;;;;;;8.60;2.55;;;5.30;99.90;;;;;;5090156;28;20514;-60
2020/12/24 17:01:21;;;;;;;20.38;4.30;;;5.30;99.90;;;;;;5101431;28;20444;-60
2020/12/24 17:03:47;;;;;;;13.38;3.03;;;5.20;99.90;;;;;;5101631;28;20027;-60
2020/12/24 17:06:13;;;;;;;14.73;3.10;;;5.30;99.90;;;;;;5097927;28;20328;-60
2020/12/24 17:08:39;;;;;;;16.42;2.70;;;5.30;99.90;;;;;;5101832;28;20027;-61
2020/12/24 17:11:05;;;;;;;9.32;2.30;;;5.30;99.90;;;;;;5100542;28;20494;-61
2020/12/24 17:13:30;;;;;;;17.15;3.10;;;5.30;99.90;;;;;;5105048;28;20099;-61
2020/12/24 17:15:56;;;;;;;11.40;2.17;;;5.20;99.90;;;;;;5100992;28;20027;-60
2020/12/24 17:18:21;;;;;;;22.08;3.67;;;5.30;99.90;;;;;;5097905;28;20478;-60
2020/12/24 17:20:48;;;;;;;14.20;2.58;;;5.30;99.90;;;;;;5100699;28;20143;-61
2020/12/24 17:23:14;;;;;;;12.98;3.20;;;5.30;99.90;;;;;;5105602;27;20030;-61
2020/12/24 17:25:41;;;;;;;22.55;4.05;;;5.20;99.90;;;;;;5101846;28;20026;-60
2020/12/24 17:28:07;;;;;;;14.88;4.03;;;5.30;99.90;;;;;;5097474;28;20074;-60
2020/12/24 17:30:32;;;;;;;16.17;3.45;;;5.30;99.90;;;;;;5102199;28;20064;-61
2020/12/24 17:32:58;;;;;;;19.92;4.28;;;5.40;99.90;;;;;;5100156;28;20027;-61
2020/12/24 17:35:24;;;;;;;18.67;3.72;;;5.40;99.90;;;;;;5105720;27;20031;-61
2020/12/24 17:37:50;;;;;;;22.73;4.30;;;5.40;99.90;;;;;;5099673;28;20035;-60
2020/12/24 17:40:16;;;;;;;18.70;4.18;;;5.40;99.90;;;;;;5097561;28;20066;-61
2020/12/24 17:42:42;;;;;;;21.08;4.10;;;5.40;99.90;;;;;;5098404;28;20028;-61
2020/12/24 17:45:08;;;;;;;12.85;3.45;;;5.40;99.90;;;;;;5118885;27;20047;-61
2020/12/24 17:47:35;;;;;;;11.52;2.58;;;5.40;99.90;;;;;;5125798;27;20376;-59
2020/12/24 17:50:00;;;;;;;12.13;2.83;;;5.50;99.90;;;;;;5129469;27;20122;-59
2020/12/24 17:52:27;;;;;;;29.00;3.72;;;5.50;99.90;;;;;;5127280;27;20115;-61
2020/12/24 17:54:53;;;;;;;11.77;2.65;;;5.50;99.90;;;;;;5127906;27;20069;-60
2020/12/24 17:57:19;;;;;;;12.98;2.60;;;5.50;99.90;;;;;;5132428;27;20404;-60
2020/12/24 17:59:44;;;;;;;11.25;2.13;;;5.50;99.90;;;;;;5136219;27;20461;-61
2020/12/24 18:02:10;;;;;;;9.77;2.72;;;5.50;99.90;;;;;;5131221;27;20022;-61